Canefield Airport

Cloudy with adjacent showers and slight dust haze
31oC (88oF)

Cloudy with adjacent showers and slight dust haze


Winds: Northerly @ 05kts / 09km/h

Humidity: 59%

Barometric Pressure: 1012 mb

Accumulated Rainfall for July: 233.9 mm

Updated: 16:00 local time (20:00 UTC)

Douglas-Charles Airport

Cloudy with slight dust haze and light showers
27oC (81oF)

Cloudy with slight dust haze and light showers


Winds: Easterly @ 08kts / 15km/h

Humidity: 92%

Barometric Pressure: 1014 mb

Accumulated Rainfall for July: 144.3 mm

Updated: 7:00 local time (11:00 UTC)

Satellite Imagery

Satellite Imagery
Click image for larger view. (Source: National Hurricane Center).

Aviation Routine Report (METAR)

Douglas-Charles: METAR TDPD 011100Z 09008KT 9999 -SHRA BKN014 27/25 Q1014=
Canefield: METAR TDCF 302000Z 35005KT 9999 BKN016 31/22 Q1012=